sensor_id;sensor_type;location;lat;lon;timestamp;P1;durP1;ratioP1;P2;durP2;ratioP2
31336;SDS011;22846;42.654;23.314;2022-12-29T00:01:58;11.02;;;8.15;;
31336;SDS011;22846;42.654;23.314;2022-12-29T00:04:23;10.68;;;7.88;;
31336;SDS011;22846;42.654;23.314;2022-12-29T00:06:48;10.73;;;7.63;;
31336;SDS011;22846;42.654;23.314;2022-12-29T00:09:15;11.18;;;7.57;;
31336;SDS011;22846;42.654;23.314;2022-12-29T00:11:41;9.68;;;7.28;;
31336;SDS011;22846;42.654;23.314;2022-12-29T00:14:11;9.93;;;7.38;;
31336;SDS011;22846;42.654;23.314;2022-12-29T00:16:55;10.13;;;6.90;;
31336;SDS011;22846;42.654;23.314;2022-12-29T00:19:21;10.35;;;7.03;;
31336;SDS011;22846;42.654;23.314;2022-12-29T00:22:06;10.10;;;7.30;;
31336;SDS011;22846;42.654;23.314;2022-12-29T00:24:55;9.20;;;6.72;;
31336;SDS011;22846;42.654;23.314;2022-12-29T00:27:27;8.63;;;6.47;;
31336;SDS011;22846;42.654;23.314;2022-12-29T00:30:12;9.65;;;6.43;;
31336;SDS011;22846;42.654;23.314;2022-12-29T00:32:58;7.72;;;6.03;;
31336;SDS011;22846;42.654;23.314;2022-12-29T00:35:46;9.40;;;6.68;;
31336;SDS011;22846;42.654;23.314;2022-12-29T00:38:18;9.23;;;6.18;;
31336;SDS011;22846;42.654;23.314;2022-12-29T00:41:04;9.57;;;6.18;;
31336;SDS011;22846;42.654;23.314;2022-12-29T00:43:48;9.80;;;6.57;;
31336;SDS011;22846;42.654;23.314;2022-12-29T00:48:58;7.85;;;6.05;;
31336;SDS011;22846;42.654;23.314;2022-12-29T00:51:42;8.45;;;6.45;;
31336;SDS011;22846;42.654;23.314;2022-12-29T00:54:08;7.32;;;5.93;;
31336;SDS011;22846;42.654;23.314;2022-12-29T00:56:34;7.25;;;5.70;;
31336;SDS011;22846;42.654;23.314;2022-12-29T00:59:03;7.97;;;6.07;;
31336;SDS011;22846;42.654;23.314;2022-12-29T01:01:30;7.88;;;6.15;;
31336;SDS011;22846;42.654;23.314;2022-12-29T01:03:56;7.65;;;5.50;;
31336;SDS011;22846;42.654;23.314;2022-12-29T01:06:21;9.65;;;6.20;;
31336;SDS011;22846;42.654;23.314;2022-12-29T01:08:47;8.10;;;5.53;;
31336;SDS011;22846;42.654;23.314;2022-12-29T01:11:33;7.20;;;5.55;;
31336;SDS011;22846;42.654;23.314;2022-12-29T01:13:58;7.93;;;5.82;;
31336;SDS011;22846;42.654;23.314;2022-12-29T01:16:24;7.32;;;5.40;;
31336;SDS011;22846;42.654;23.314;2022-12-29T01:18:49;7.80;;;5.57;;
31336;SDS011;22846;42.654;23.314;2022-12-29T01:21:14;6.80;;;5.18;;
31336;SDS011;22846;42.654;23.314;2022-12-29T01:23:40;6.80;;;5.30;;
31336;SDS011;22846;42.654;23.314;2022-12-29T01:26:10;7.22;;;5.55;;
31336;SDS011;22846;42.654;23.314;2022-12-29T01:28:36;8.55;;;5.85;;
31336;SDS011;22846;42.654;23.314;2022-12-29T01:31:05;7.93;;;5.15;;
31336;SDS011;22846;42.654;23.314;2022-12-29T01:33:30;7.70;;;5.47;;
31336;SDS011;22846;42.654;23.314;2022-12-29T01:35:59;8.55;;;5.78;;
31336;SDS011;22846;42.654;23.314;2022-12-29T01:38:26;7.25;;;5.28;;
31336;SDS011;22846;42.654;23.314;2022-12-29T01:40:51;6.55;;;4.97;;
31336;SDS011;22846;42.654;23.314;2022-12-29T01:43:16;7.22;;;5.20;;
31336;SDS011;22846;42.654;23.314;2022-12-29T01:45:44;6.72;;;4.63;;
31336;SDS011;22846;42.654;23.314;2022-12-29T01:48:14;6.80;;;5.22;;
31336;SDS011;22846;42.654;23.314;2022-12-29T01:50:43;6.60;;;5.15;;
31336;SDS011;22846;42.654;23.314;2022-12-29T01:53:18;5.95;;;4.63;;
31336;SDS011;22846;42.654;23.314;2022-12-29T01:55:53;6.45;;;4.88;;
31336;SDS011;22846;42.654;23.314;2022-12-29T01:58:22;6.85;;;5.07;;
31336;SDS011;22846;42.654;23.314;2022-12-29T02:00:52;6.68;;;4.85;;
31336;SDS011;22846;42.654;23.314;2022-12-29T02:03:18;6.72;;;4.95;;
31336;SDS011;22846;42.654;23.314;2022-12-29T02:05:48;6.95;;;4.65;;
31336;SDS011;22846;42.654;23.314;2022-12-29T02:08:23;5.97;;;4.57;;
31336;SDS011;22846;42.654;23.314;2022-12-29T02:10:52;7.57;;;5.10;;
31336;SDS011;22846;42.654;23.314;2022-12-29T02:13:18;6.20;;;4.88;;
31336;SDS011;22846;42.654;23.314;2022-12-29T02:18:33;6.82;;;4.72;;
31336;SDS011;22846;42.654;23.314;2022-12-29T02:34:47;6.88;;;4.93;;
31336;SDS011;22846;42.654;23.314;2022-12-29T02:37:23;5.95;;;4.70;;
31336;SDS011;22846;42.654;23.314;2022-12-29T02:46:04;5.47;;;4.22;;
31336;SDS011;22846;42.654;23.314;2022-12-29T02:49:48;5.80;;;4.18;;
31336;SDS011;22846;42.654;23.314;2022-12-29T02:54:20;5.93;;;4.50;;
31336;SDS011;22846;42.654;23.314;2022-12-29T02:59:45;5.55;;;4.55;;
31336;SDS011;22846;42.654;23.314;2022-12-29T03:10:48;6.18;;;4.43;;
31336;SDS011;22846;42.654;23.314;2022-12-29T03:19:12;6.00;;;4.28;;
31336;SDS011;22846;42.654;23.314;2022-12-29T03:21:50;5.72;;;4.25;;
31336;SDS011;22846;42.654;23.314;2022-12-29T03:24:46;5.05;;;4.00;;
31336;SDS011;22846;42.654;23.314;2022-12-29T03:27:19;5.38;;;4.20;;
31336;SDS011;22846;42.654;23.314;2022-12-29T03:29:53;5.95;;;4.28;;
31336;SDS011;22846;42.654;23.314;2022-12-29T03:32:23;5.35;;;4.00;;
31336;SDS011;22846;42.654;23.314;2022-12-29T03:34:53;5.63;;;4.20;;
31336;SDS011;22846;42.654;23.314;2022-12-29T03:37:24;5.00;;;4.05;;
31336;SDS011;22846;42.654;23.314;2022-12-29T03:39:55;4.55;;;3.83;;
31336;SDS011;22846;42.654;23.314;2022-12-29T03:42:22;5.25;;;4.07;;
31336;SDS011;22846;42.654;23.314;2022-12-29T03:44:53;4.78;;;3.83;;
31336;SDS011;22846;42.654;23.314;2022-12-29T03:47:21;4.82;;;3.85;;
31336;SDS011;22846;42.654;23.314;2022-12-29T03:49:47;5.18;;;4.07;;
31336;SDS011;22846;42.654;23.314;2022-12-29T03:52:14;4.75;;;4.05;;
31336;SDS011;22846;42.654;23.314;2022-12-29T03:54:40;5.75;;;4.13;;
31336;SDS011;22846;42.654;23.314;2022-12-29T03:57:05;4.97;;;3.90;;
31336;SDS011;22846;42.654;23.314;2022-12-29T03:59:30;6.03;;;4.03;;
31336;SDS011;22846;42.654;23.314;2022-12-29T04:01:56;5.50;;;3.92;;
31336;SDS011;22846;42.654;23.314;2022-12-29T04:04:21;4.88;;;3.97;;
31336;SDS011;22846;42.654;23.314;2022-12-29T04:06:47;4.93;;;3.83;;
31336;SDS011;22846;42.654;23.314;2022-12-29T04:09:12;5.00;;;3.55;;
31336;SDS011;22846;42.654;23.314;2022-12-29T04:11:38;5.25;;;3.28;;
31336;SDS011;22846;42.654;23.314;2022-12-29T04:14:03;4.47;;;3.55;;
31336;SDS011;22846;42.654;23.314;2022-12-29T04:16:29;5.15;;;3.60;;
31336;SDS011;22846;42.654;23.314;2022-12-29T04:18:54;5.00;;;3.60;;
31336;SDS011;22846;42.654;23.314;2022-12-29T04:21:19;4.90;;;4.00;;
31336;SDS011;22846;42.654;23.314;2022-12-29T04:23:45;4.38;;;3.13;;
31336;SDS011;22846;42.654;23.314;2022-12-29T04:26:10;4.07;;;3.20;;
31336;SDS011;22846;42.654;23.314;2022-12-29T04:28:36;4.47;;;3.28;;
31336;SDS011;22846;42.654;23.314;2022-12-29T04:31:02;3.55;;;2.90;;
31336;SDS011;22846;42.654;23.314;2022-12-29T04:33:28;4.70;;;3.33;;
31336;SDS011;22846;42.654;23.314;2022-12-29T04:35:54;4.30;;;3.25;;
31336;SDS011;22846;42.654;23.314;2022-12-29T04:38:20;4.32;;;3.25;;
31336;SDS011;22846;42.654;23.314;2022-12-29T04:40:47;4.93;;;3.25;;
31336;SDS011;22846;42.654;23.314;2022-12-29T04:43:13;4.03;;;3.03;;
31336;SDS011;22846;42.654;23.314;2022-12-29T04:45:43;3.90;;;3.22;;
31336;SDS011;22846;42.654;23.314;2022-12-29T04:48:09;3.35;;;2.70;;
31336;SDS011;22846;42.654;23.314;2022-12-29T04:50:35;4.63;;;3.20;;
31336;SDS011;22846;42.654;23.314;2022-12-29T04:53:00;4.50;;;3.20;;
31336;SDS011;22846;42.654;23.314;2022-12-29T04:55:26;3.28;;;2.78;;
31336;SDS011;22846;42.654;23.314;2022-12-29T04:57:52;4.05;;;3.03;;
31336;SDS011;22846;42.654;23.314;2022-12-29T05:00:17;3.75;;;2.80;;
31336;SDS011;22846;42.654;23.314;2022-12-29T05:02:43;3.90;;;3.20;;
31336;SDS011;22846;42.654;23.314;2022-12-29T05:05:08;6.10;;;4.40;;
31336;SDS011;22846;42.654;23.314;2022-12-29T05:07:34;4.15;;;3.60;;
31336;SDS011;22846;42.654;23.314;2022-12-29T05:09:59;4.15;;;3.35;;
31336;SDS011;22846;42.654;23.314;2022-12-29T05:12:25;4.05;;;3.33;;
31336;SDS011;22846;42.654;23.314;2022-12-29T05:14:50;4.35;;;3.25;;
31336;SDS011;22846;42.654;23.314;2022-12-29T05:17:15;4.30;;;3.33;;
31336;SDS011;22846;42.654;23.314;2022-12-29T05:19:41;3.97;;;2.92;;
31336;SDS011;22846;42.654;23.314;2022-12-29T05:22:06;4.85;;;3.90;;
31336;SDS011;22846;42.654;23.314;2022-12-29T05:24:32;4.43;;;3.35;;
31336;SDS011;22846;42.654;23.314;2022-12-29T05:26:57;4.97;;;3.65;;
31336;SDS011;22846;42.654;23.314;2022-12-29T05:29:22;3.33;;;2.90;;
31336;SDS011;22846;42.654;23.314;2022-12-29T05:31:48;5.32;;;3.22;;
31336;SDS011;22846;42.654;23.314;2022-12-29T05:34:13;3.83;;;3.15;;
31336;SDS011;22846;42.654;23.314;2022-12-29T05:36:39;4.40;;;3.17;;
31336;SDS011;22846;42.654;23.314;2022-12-29T05:39:04;3.33;;;2.80;;
31336;SDS011;22846;42.654;23.314;2022-12-29T05:41:32;4.72;;;3.28;;
31336;SDS011;22846;42.654;23.314;2022-12-29T05:43:58;3.50;;;2.90;;
31336;SDS011;22846;42.654;23.314;2022-12-29T05:46:23;4.50;;;3.50;;
31336;SDS011;22846;42.654;23.314;2022-12-29T05:48:48;3.85;;;3.22;;
31336;SDS011;22846;42.654;23.314;2022-12-29T05:51:14;4.03;;;3.10;;
31336;SDS011;22846;42.654;23.314;2022-12-29T05:53:39;3.97;;;3.13;;
31336;SDS011;22846;42.654;23.314;2022-12-29T05:56:05;4.18;;;2.95;;
31336;SDS011;22846;42.654;23.314;2022-12-29T05:58:30;4.28;;;3.45;;
31336;SDS011;22846;42.654;23.314;2022-12-29T06:00:56;4.10;;;3.30;;
31336;SDS011;22846;42.654;23.314;2022-12-29T06:03:21;4.93;;;3.42;;
31336;SDS011;22846;42.654;23.314;2022-12-29T06:05:47;4.85;;;3.35;;
31336;SDS011;22846;42.654;23.314;2022-12-29T06:08:12;4.60;;;3.58;;
31336;SDS011;22846;42.654;23.314;2022-12-29T06:10:37;5.10;;;3.45;;
31336;SDS011;22846;42.654;23.314;2022-12-29T06:13:03;4.95;;;3.65;;
31336;SDS011;22846;42.654;23.314;2022-12-29T06:15:30;4.40;;;3.25;;
31336;SDS011;22846;42.654;23.314;2022-12-29T06:17:56;4.70;;;3.20;;
31336;SDS011;22846;42.654;23.314;2022-12-29T06:20:22;3.95;;;3.03;;
31336;SDS011;22846;42.654;23.314;2022-12-29T06:22:47;4.57;;;3.60;;
31336;SDS011;22846;42.654;23.314;2022-12-29T06:25:14;4.22;;;3.42;;
31336;SDS011;22846;42.654;23.314;2022-12-29T06:27:40;4.95;;;3.30;;
31336;SDS011;22846;42.654;23.314;2022-12-29T06:30:06;4.07;;;3.20;;
31336;SDS011;22846;42.654;23.314;2022-12-29T06:32:32;4.63;;;3.42;;
31336;SDS011;22846;42.654;23.314;2022-12-29T06:34:57;3.72;;;3.13;;
31336;SDS011;22846;42.654;23.314;2022-12-29T06:37:24;4.75;;;3.50;;
31336;SDS011;22846;42.654;23.314;2022-12-29T06:39:49;3.70;;;3.28;;
31336;SDS011;22846;42.654;23.314;2022-12-29T06:42:15;5.03;;;3.03;;
31336;SDS011;22846;42.654;23.314;2022-12-29T06:44:40;4.25;;;3.38;;
31336;SDS011;22846;42.654;23.314;2022-12-29T06:47:06;4.03;;;3.20;;
31336;SDS011;22846;42.654;23.314;2022-12-29T06:49:31;4.32;;;3.45;;
31336;SDS011;22846;42.654;23.314;2022-12-29T06:51:56;4.28;;;3.17;;
31336;SDS011;22846;42.654;23.314;2022-12-29T06:54:23;4.03;;;3.20;;
31336;SDS011;22846;42.654;23.314;2022-12-29T06:56:48;3.83;;;3.10;;
31336;SDS011;22846;42.654;23.314;2022-12-29T06:59:14;4.38;;;3.20;;
31336;SDS011;22846;42.654;23.314;2022-12-29T07:01:40;4.05;;;3.30;;
31336;SDS011;22846;42.654;23.314;2022-12-29T07:04:06;4.13;;;3.20;;
31336;SDS011;22846;42.654;23.314;2022-12-29T07:06:31;4.15;;;3.22;;
31336;SDS011;22846;42.654;23.314;2022-12-29T07:08:57;4.03;;;3.10;;
31336;SDS011;22846;42.654;23.314;2022-12-29T07:11:22;3.63;;;3.05;;
31336;SDS011;22846;42.654;23.314;2022-12-29T07:13:48;4.30;;;2.83;;
31336;SDS011;22846;42.654;23.314;2022-12-29T07:16:14;3.95;;;3.00;;
31336;SDS011;22846;42.654;23.314;2022-12-29T07:18:39;4.20;;;3.13;;
31336;SDS011;22846;42.654;23.314;2022-12-29T07:21:05;4.28;;;3.20;;
31336;SDS011;22846;42.654;23.314;2022-12-29T07:23:30;6.18;;;3.35;;
31336;SDS011;22846;42.654;23.314;2022-12-29T07:25:59;4.32;;;3.20;;
31336;SDS011;22846;42.654;23.314;2022-12-29T07:28:29;3.80;;;3.17;;
31336;SDS011;22846;42.654;23.314;2022-12-29T07:30:55;4.78;;;3.35;;
31336;SDS011;22846;42.654;23.314;2022-12-29T07:33:20;3.92;;;2.90;;
31336;SDS011;22846;42.654;23.314;2022-12-29T07:35:45;4.78;;;3.25;;
31336;SDS011;22846;42.654;23.314;2022-12-29T07:38:11;6.47;;;4.22;;
31336;SDS011;22846;42.654;23.314;2022-12-29T07:40:36;5.10;;;3.75;;
31336;SDS011;22846;42.654;23.314;2022-12-29T07:43:03;4.30;;;3.25;;
31336;SDS011;22846;42.654;23.314;2022-12-29T07:45:29;4.30;;;3.50;;
31336;SDS011;22846;42.654;23.314;2022-12-29T07:47:55;8.20;;;6.32;;
31336;SDS011;22846;42.654;23.314;2022-12-29T07:50:20;5.25;;;3.40;;
31336;SDS011;22846;42.654;23.314;2022-12-29T07:52:45;9.00;;;3.90;;
31336;SDS011;22846;42.654;23.314;2022-12-29T07:55:13;9.32;;;4.35;;
31336;SDS011;22846;42.654;23.314;2022-12-29T07:57:39;6.90;;;3.50;;
31336;SDS011;22846;42.654;23.314;2022-12-29T08:00:04;12.40;;;3.83;;
31336;SDS011;22846;42.654;23.314;2022-12-29T08:02:30;173.40;;;110.28;;
31336;SDS011;22846;42.654;23.314;2022-12-29T08:04:56;144.77;;;94.15;;
31336;SDS011;22846;42.654;23.314;2022-12-29T08:07:21;66.03;;;45.22;;
31336;SDS011;22846;42.654;23.314;2022-12-29T08:09:46;69.95;;;45.53;;
31336;SDS011;22846;42.654;23.314;2022-12-29T08:12:12;60.25;;;39.97;;
31336;SDS011;22846;42.654;23.314;2022-12-29T08:14:37;52.55;;;35.13;;
31336;SDS011;22846;42.654;23.314;2022-12-29T08:17:03;52.92;;;33.83;;
31336;SDS011;22846;42.654;23.314;2022-12-29T08:19:28;51.00;;;32.00;;
31336;SDS011;22846;42.654;23.314;2022-12-29T08:21:55;43.88;;;30.20;;
31336;SDS011;22846;42.654;23.314;2022-12-29T08:24:20;48.10;;;30.15;;
31336;SDS011;22846;42.654;23.314;2022-12-29T08:26:46;41.65;;;27.55;;
31336;SDS011;22846;42.654;23.314;2022-12-29T08:29:12;40.60;;;27.52;;
31336;SDS011;22846;42.654;23.314;2022-12-29T08:31:37;37.33;;;26.35;;
31336;SDS011;22846;42.654;23.314;2022-12-29T08:34:02;36.22;;;25.02;;
31336;SDS011;22846;42.654;23.314;2022-12-29T08:36:29;37.05;;;25.75;;
31336;SDS011;22846;42.654;23.314;2022-12-29T08:38:55;38.30;;;24.95;;
31336;SDS011;22846;42.654;23.314;2022-12-29T08:41:21;37.15;;;23.40;;
31336;SDS011;22846;42.654;23.314;2022-12-29T08:43:47;32.45;;;22.58;;
31336;SDS011;22846;42.654;23.314;2022-12-29T08:46:13;34.70;;;22.88;;
31336;SDS011;22846;42.654;23.314;2022-12-29T08:48:39;30.92;;;22.08;;
31336;SDS011;22846;42.654;23.314;2022-12-29T08:51:05;30.35;;;21.17;;
31336;SDS011;22846;42.654;23.314;2022-12-29T08:53:30;27.92;;;20.40;;
31336;SDS011;22846;42.654;23.314;2022-12-29T08:55:57;28.58;;;19.92;;
31336;SDS011;22846;42.654;23.314;2022-12-29T08:58:24;27.88;;;20.27;;
31336;SDS011;22846;42.654;23.314;2022-12-29T09:00:52;27.08;;;19.17;;
31336;SDS011;22846;42.654;23.314;2022-12-29T09:03:21;26.73;;;18.40;;
31336;SDS011;22846;42.654;23.314;2022-12-29T09:05:48;27.20;;;18.00;;
31336;SDS011;22846;42.654;23.314;2022-12-29T09:08:14;25.73;;;17.83;;
31336;SDS011;22846;42.654;23.314;2022-12-29T09:10:40;23.98;;;16.45;;
31336;SDS011;22846;42.654;23.314;2022-12-29T09:13:05;22.25;;;16.35;;
31336;SDS011;22846;42.654;23.314;2022-12-29T09:15:31;24.75;;;15.93;;
31336;SDS011;22846;42.654;23.314;2022-12-29T09:17:56;22.75;;;15.45;;
31336;SDS011;22846;42.654;23.314;2022-12-29T09:20:22;29.92;;;21.20;;
31336;SDS011;22846;42.654;23.314;2022-12-29T09:22:47;34.35;;;24.85;;
31336;SDS011;22846;42.654;23.314;2022-12-29T09:25:14;31.35;;;21.58;;
31336;SDS011;22846;42.654;23.314;2022-12-29T09:27:40;22.67;;;16.95;;
31336;SDS011;22846;42.654;23.314;2022-12-29T09:30:06;24.02;;;16.83;;
31336;SDS011;22846;42.654;23.314;2022-12-29T09:32:35;18.13;;;13.70;;
31336;SDS011;22846;42.654;23.314;2022-12-29T09:35:01;17.30;;;11.68;;
31336;SDS011;22846;42.654;23.314;2022-12-29T09:37:26;15.13;;;11.60;;
31336;SDS011;22846;42.654;23.314;2022-12-29T09:39:52;15.32;;;10.05;;
31336;SDS011;22846;42.654;23.314;2022-12-29T09:47:45;10.55;;;7.93;;
31336;SDS011;22846;42.654;23.314;2022-12-29T09:50:24;14.50;;;8.10;;
31336;SDS011;22846;42.654;23.314;2022-12-29T09:53:05;14.27;;;8.80;;
31336;SDS011;22846;42.654;23.314;2022-12-29T09:56:41;10.38;;;7.82;;
31336;SDS011;22846;42.654;23.314;2022-12-29T09:58:54;16.83;;;8.65;;
31336;SDS011;22846;42.654;23.314;2022-12-29T10:01:35;14.30;;;10.07;;
31336;SDS011;22846;42.654;23.314;2022-12-29T10:04:11;14.50;;;9.20;;
31336;SDS011;22846;42.654;23.314;2022-12-29T10:06:39;18.80;;;10.40;;
31336;SDS011;22846;42.654;23.314;2022-12-29T10:17:50;15.02;;;9.45;;
31336;SDS011;22846;42.654;23.314;2022-12-29T10:20:27;14.07;;;9.90;;
31336;SDS011;22846;42.654;23.314;2022-12-29T10:23:06;18.00;;;10.07;;
31336;SDS011;22846;42.654;23.314;2022-12-29T10:25:47;14.00;;;9.35;;
31336;SDS011;22846;42.654;23.314;2022-12-29T10:28:20;13.88;;;8.93;;
31336;SDS011;22846;42.654;23.314;2022-12-29T10:30:48;23.75;;;9.25;;
31336;SDS011;22846;42.654;23.314;2022-12-29T10:33:17;29.48;;;9.70;;
31336;SDS011;22846;42.654;23.314;2022-12-29T10:38:28;19.08;;;8.15;;
31336;SDS011;22846;42.654;23.314;2022-12-29T10:41:02;14.48;;;8.25;;
31336;SDS011;22846;42.654;23.314;2022-12-29T10:43:45;14.48;;;8.23;;
31336;SDS011;22846;42.654;23.314;2022-12-29T10:46:14;14.98;;;7.03;;
31336;SDS011;22846;42.654;23.314;2022-12-29T10:48:43;12.60;;;7.13;;
31336;SDS011;22846;42.654;23.314;2022-12-29T10:51:14;13.20;;;7.32;;
31336;SDS011;22846;42.654;23.314;2022-12-29T10:53:52;33.03;;;11.35;;
31336;SDS011;22846;42.654;23.314;2022-12-29T10:56:36;20.08;;;10.85;;
31336;SDS011;22846;42.654;23.314;2022-12-29T11:06:55;19.10;;;11.35;;
31336;SDS011;22846;42.654;23.314;2022-12-29T11:09:24;17.38;;;11.00;;
31336;SDS011;22846;42.654;23.314;2022-12-29T11:11:56;28.30;;;10.05;;
31336;SDS011;22846;42.654;23.314;2022-12-29T11:14:31;22.20;;;9.18;;
31336;SDS011;22846;42.654;23.314;2022-12-29T11:17:00;19.63;;;8.65;;
31336;SDS011;22846;42.654;23.314;2022-12-29T11:19:28;30.90;;;12.25;;
31336;SDS011;22846;42.654;23.314;2022-12-29T11:22:11;17.25;;;8.25;;
31336;SDS011;22846;42.654;23.314;2022-12-29T11:24:37;34.83;;;23.45;;
31336;SDS011;22846;42.654;23.314;2022-12-29T11:27:21;31.45;;;15.27;;
31336;SDS011;22846;42.654;23.314;2022-12-29T11:29:48;27.30;;;14.38;;
31336;SDS011;22846;42.654;23.314;2022-12-29T11:32:18;21.52;;;13.15;;
31336;SDS011;22846;42.654;23.314;2022-12-29T11:34:49;21.13;;;11.88;;
31336;SDS011;22846;42.654;23.314;2022-12-29T11:39:43;18.73;;;10.68;;
31336;SDS011;22846;42.654;23.314;2022-12-29T11:42:18;20.33;;;9.82;;
31336;SDS011;22846;42.654;23.314;2022-12-29T11:47:28;18.73;;;8.13;;
31336;SDS011;22846;42.654;23.314;2022-12-29T11:50:00;23.45;;;10.00;;
31336;SDS011;22846;42.654;23.314;2022-12-29T11:52:31;19.02;;;9.20;;
31336;SDS011;22846;42.654;23.314;2022-12-29T11:55:00;22.75;;;10.27;;
31336;SDS011;22846;42.654;23.314;2022-12-29T11:57:28;17.02;;;9.38;;
31336;SDS011;22846;42.654;23.314;2022-12-29T11:59:55;18.55;;;9.43;;
31336;SDS011;22846;42.654;23.314;2022-12-29T12:02:36;23.92;;;9.05;;
31336;SDS011;22846;42.654;23.314;2022-12-29T12:05:30;18.60;;;9.32;;
31336;SDS011;22846;42.654;23.314;2022-12-29T12:10:55;20.45;;;8.10;;
31336;SDS011;22846;42.654;23.314;2022-12-29T12:13:30;15.38;;;8.85;;
31336;SDS011;22846;42.654;23.314;2022-12-29T12:16:03;19.63;;;9.10;;
31336;SDS011;22846;42.654;23.314;2022-12-29T12:18:37;12.02;;;7.38;;
31336;SDS011;22846;42.654;23.314;2022-12-29T12:21:14;14.18;;;7.72;;
31336;SDS011;22846;42.654;23.314;2022-12-29T12:26:32;14.02;;;8.05;;
31336;SDS011;22846;42.654;23.314;2022-12-29T12:31:51;19.00;;;7.97;;
31336;SDS011;22846;42.654;23.314;2022-12-29T12:34:40;18.65;;;7.55;;
31336;SDS011;22846;42.654;23.314;2022-12-29T12:50:32;13.73;;;7.50;;
31336;SDS011;22846;42.654;23.314;2022-12-29T12:58:52;14.88;;;7.10;;
31336;SDS011;22846;42.654;23.314;2022-12-29T13:18:46;13.10;;;6.63;;
31336;SDS011;22846;42.654;23.314;2022-12-29T13:26:34;11.02;;;6.30;;
31336;SDS011;22846;42.654;23.314;2022-12-29T13:37:44;12.88;;;6.40;;
31336;SDS011;22846;42.654;23.314;2022-12-29T13:40:24;11.73;;;6.10;;
31336;SDS011;22846;42.654;23.314;2022-12-29T13:42:53;12.40;;;6.15;;
31336;SDS011;22846;42.654;23.314;2022-12-29T13:45:22;12.07;;;6.00;;
31336;SDS011;22846;42.654;23.314;2022-12-29T13:48:02;10.68;;;5.78;;
31336;SDS011;22846;42.654;23.314;2022-12-29T13:50:36;14.25;;;5.97;;
31336;SDS011;22846;42.654;23.314;2022-12-29T13:58:31;13.20;;;5.78;;
31336;SDS011;22846;42.654;23.314;2022-12-29T14:01:18;11.77;;;8.95;;
31336;SDS011;22846;42.654;23.314;2022-12-29T14:03:55;13.05;;;6.63;;
31336;SDS011;22846;42.654;23.314;2022-12-29T14:06:29;10.55;;;5.82;;
31336;SDS011;22846;42.654;23.314;2022-12-29T14:09:02;8.70;;;5.03;;
31336;SDS011;22846;42.654;23.314;2022-12-29T14:11:30;11.18;;;5.07;;
31336;SDS011;22846;42.654;23.314;2022-12-29T14:13:59;6.68;;;4.68;;
31336;SDS011;22846;42.654;23.314;2022-12-29T14:16:43;7.35;;;4.57;;
31336;SDS011;22846;42.654;23.314;2022-12-29T14:21:49;9.10;;;4.43;;
31336;SDS011;22846;42.654;23.314;2022-12-29T14:24:27;6.88;;;4.20;;
31336;SDS011;22846;42.654;23.314;2022-12-29T14:37:27;11.85;;;7.20;;
31336;SDS011;22846;42.654;23.314;2022-12-29T14:40:23;10.13;;;7.13;;
31336;SDS011;22846;42.654;23.314;2022-12-29T14:42:51;7.97;;;6.50;;
31336;SDS011;22846;42.654;23.314;2022-12-29T14:47:48;7.95;;;5.80;;
31336;SDS011;22846;42.654;23.314;2022-12-29T14:55:40;7.07;;;5.22;;
31336;SDS011;22846;42.654;23.314;2022-12-29T14:58:29;7.60;;;5.00;;
31336;SDS011;22846;42.654;23.314;2022-12-29T15:00:57;5.68;;;4.43;;
31336;SDS011;22846;42.654;23.314;2022-12-29T15:03:43;12.93;;;5.07;;
31336;SDS011;22846;42.654;23.314;2022-12-29T15:06:13;9.23;;;5.43;;
31336;SDS011;22846;42.654;23.314;2022-12-29T15:08:46;12.15;;;5.88;;
31336;SDS011;22846;42.654;23.314;2022-12-29T15:11:21;9.10;;;5.30;;
31336;SDS011;22846;42.654;23.314;2022-12-29T15:13:48;7.07;;;5.37;;
31336;SDS011;22846;42.654;23.314;2022-12-29T15:16:24;9.52;;;5.18;;
31336;SDS011;22846;42.654;23.314;2022-12-29T15:18:54;8.65;;;5.20;;
31336;SDS011;22846;42.654;23.314;2022-12-29T15:21:22;7.53;;;5.05;;
31336;SDS011;22846;42.654;23.314;2022-12-29T15:23:50;6.88;;;5.00;;
31336;SDS011;22846;42.654;23.314;2022-12-29T15:26:17;6.05;;;4.47;;
31336;SDS011;22846;42.654;23.314;2022-12-29T15:28:47;6.25;;;4.80;;
31336;SDS011;22846;42.654;23.314;2022-12-29T15:31:16;5.82;;;4.85;;
31336;SDS011;22846;42.654;23.314;2022-12-29T15:33:52;5.75;;;4.20;;
31336;SDS011;22846;42.654;23.314;2022-12-29T15:38:44;8.10;;;4.93;;
31336;SDS011;22846;42.654;23.314;2022-12-29T15:46:50;7.95;;;6.20;;
31336;SDS011;22846;42.654;23.314;2022-12-29T15:49:17;8.85;;;5.95;;
31336;SDS011;22846;42.654;23.314;2022-12-29T15:51:43;6.20;;;5.13;;
31336;SDS011;22846;42.654;23.314;2022-12-29T15:54:16;6.25;;;4.80;;
31336;SDS011;22846;42.654;23.314;2022-12-29T15:56:43;7.00;;;5.25;;
31336;SDS011;22846;42.654;23.314;2022-12-29T16:02:10;13.48;;;5.20;;
31336;SDS011;22846;42.654;23.314;2022-12-29T16:04:36;6.90;;;4.90;;
31336;SDS011;22846;42.654;23.314;2022-12-29T16:07:05;6.53;;;4.80;;
31336;SDS011;22846;42.654;23.314;2022-12-29T16:09:46;7.60;;;4.65;;
31336;SDS011;22846;42.654;23.314;2022-12-29T16:14:50;6.97;;;4.50;;
31336;SDS011;22846;42.654;23.314;2022-12-29T16:17:20;8.13;;;4.75;;
31336;SDS011;22846;42.654;23.314;2022-12-29T16:22:35;7.85;;;5.55;;
31336;SDS011;22846;42.654;23.314;2022-12-29T16:25:24;9.60;;;6.93;;
31336;SDS011;22846;42.654;23.314;2022-12-29T16:27:53;11.10;;;5.88;;
31336;SDS011;22846;42.654;23.314;2022-12-29T16:30:19;8.50;;;5.72;;
31336;SDS011;22846;42.654;23.314;2022-12-29T16:32:48;7.68;;;5.53;;
31336;SDS011;22846;42.654;23.314;2022-12-29T16:37:44;7.32;;;5.13;;
31336;SDS011;22846;42.654;23.314;2022-12-29T16:42:46;7.95;;;4.97;;
31336;SDS011;22846;42.654;23.314;2022-12-29T16:47:45;13.10;;;5.57;;
31336;SDS011;22846;42.654;23.314;2022-12-29T16:50:12;16.10;;;5.82;;
31336;SDS011;22846;42.654;23.314;2022-12-29T16:52:46;14.30;;;5.40;;
31336;SDS011;22846;42.654;23.314;2022-12-29T16:55:17;13.00;;;5.53;;
31336;SDS011;22846;42.654;23.314;2022-12-29T16:57:44;17.92;;;4.68;;
31336;SDS011;22846;42.654;23.314;2022-12-29T17:00:20;10.45;;;4.70;;
31336;SDS011;22846;42.654;23.314;2022-12-29T17:02:47;13.25;;;4.80;;
31336;SDS011;22846;42.654;23.314;2022-12-29T17:05:15;12.40;;;4.90;;
31336;SDS011;22846;42.654;23.314;2022-12-29T17:07:42;21.23;;;7.50;;
31336;SDS011;22846;42.654;23.314;2022-12-29T17:10:08;21.40;;;11.68;;
31336;SDS011;22846;42.654;23.314;2022-12-29T17:12:34;57.75;;;32.97;;
31336;SDS011;22846;42.654;23.314;2022-12-29T17:15:05;53.05;;;29.35;;
31336;SDS011;22846;42.654;23.314;2022-12-29T17:17:44;41.63;;;25.95;;
31336;SDS011;22846;42.654;23.314;2022-12-29T17:22:43;26.35;;;13.98;;
31336;SDS011;22846;42.654;23.314;2022-12-29T17:25:12;19.92;;;12.10;;
31336;SDS011;22846;42.654;23.314;2022-12-29T17:27:44;22.70;;;12.60;;
31336;SDS011;22846;42.654;23.314;2022-12-29T17:30:13;18.65;;;11.73;;
31336;SDS011;22846;42.654;23.314;2022-12-29T17:32:40;20.65;;;11.70;;
31336;SDS011;22846;42.654;23.314;2022-12-29T17:35:17;23.48;;;10.90;;
31336;SDS011;22846;42.654;23.314;2022-12-29T17:37:44;19.08;;;10.20;;
31336;SDS011;22846;42.654;23.314;2022-12-29T17:40:17;15.35;;;9.80;;
31336;SDS011;22846;42.654;23.314;2022-12-29T17:42:54;16.63;;;9.35;;
31336;SDS011;22846;42.654;23.314;2022-12-29T17:45:22;14.15;;;10.32;;
31336;SDS011;22846;42.654;23.314;2022-12-29T17:47:49;18.85;;;11.40;;